createdAt,value
2017-11-08T00:00:05.083Z,74.3
2017-11-08T00:15:05.174Z,74.1
2017-11-08T00:30:05.574Z,75.3
2017-11-08T00:45:05.052Z,73.7
2017-11-08T01:00:08.475Z,73.7
2017-11-08T01:15:08.081Z,73.3
2017-11-08T01:30:06.426Z,73.1
2017-11-08T01:45:04.820Z,74.1
2017-11-08T02:00:04.915Z,74.8
2017-11-08T02:15:04.392Z,76.4
2017-11-08T02:30:05.085Z,75.4
2017-11-08T02:45:15.594Z,76
2017-11-08T03:00:08.452Z,75.4
2017-11-08T03:15:05.078Z,73.9
2017-11-08T03:30:05.162Z,75.9
2017-11-08T03:45:04.546Z,74.4
2017-11-08T04:00:06.278Z,73.3
2017-11-08T04:15:05.209Z,76.2
2017-11-08T04:30:07.396Z,75.6
2017-11-08T04:45:05.031Z,74.7
2017-11-08T05:00:04.508Z,74.8
2017-11-08T05:15:04.451Z,75
2017-11-08T05:30:05.385Z,76.3
2017-11-08T05:45:04.426Z,75
2017-11-08T06:00:04.925Z,76.9
2017-11-08T06:15:04.314Z,75.3
2017-11-08T06:30:05.025Z,76.1
2017-11-08T06:45:05.554Z,75.5
2017-11-08T07:00:07.459Z,75.1
2017-11-08T07:15:04.812Z,75.8
2017-11-08T07:30:05.859Z,73.6
2017-11-08T07:45:11.574Z,76.2
2017-11-08T08:00:04.975Z,76.7
2017-11-08T08:15:05.461Z,75.4
2017-11-08T08:30:04.279Z,76.1
2017-11-08T08:45:05.178Z,75.2
2017-11-08T09:00:05.100Z,72.7
2017-11-08T09:15:08.162Z,72.7
2017-11-08T09:30:14.473Z,73.2
2017-11-08T09:45:09.068Z,71.7
2017-11-08T10:00:08.373Z,72.8
2017-11-08T10:15:07.397Z,68
2017-11-08T10:30:10.207Z,70.4
2017-11-08T10:45:20.442Z,67.8
2017-11-08T11:00:08.103Z,68
2017-11-08T11:15:04.534Z,67.9
2017-11-08T11:30:06.257Z,71.6
2017-11-08T11:45:05.146Z,68.7
2017-11-08T12:00:05.129Z,68.6
2017-11-08T12:15:04.522Z,68.5
2017-11-08T12:30:06.219Z,68.5
2017-11-08T12:45:06.196Z,68.6
2017-11-08T13:00:05.724Z,69.1
2017-11-08T13:15:04.935Z,68.6
2017-11-08T13:30:04.569Z,67.3
2017-11-08T13:45:05.151Z,69.6
2017-11-08T14:00:08.026Z,70.5
2017-11-08T14:15:06.017Z,71.5
2017-11-08T14:30:05.979Z,71
2017-11-08T14:45:07.917Z,70.3
2017-11-08T15:00:12.368Z,71.2
2017-11-08T15:15:05.096Z,70.9
2017-11-08T15:30:08.132Z,71.3
2017-11-08T15:45:12.432Z,70.9
2017-11-08T16:00:06.066Z,70.5
2017-11-08T16:15:04.675Z,71.7
2017-11-08T16:30:05.024Z,71.4
2017-11-08T16:45:04.793Z,70.1
2017-11-08T17:00:04.298Z,70.7
2017-11-08T17:15:05.011Z,71.1
2017-11-08T17:30:05.409Z,71.9
2017-11-08T17:45:04.598Z,71.2
2017-11-08T18:00:05.613Z,72.3
2017-11-08T18:30:07.916Z,72.5
2017-11-08T18:45:04.969Z,71.5
2017-11-08T19:00:07.512Z,73.2
2017-11-08T19:15:05.020Z,72.3
2017-11-08T19:30:06.184Z,72.5
2017-11-08T19:45:05.947Z,72.5
2017-11-08T20:00:06.375Z,73.2
2017-11-08T20:15:07.684Z,73.3
2017-11-08T20:30:08.177Z,72.9
2017-11-08T20:45:04.916Z,72.2
2017-11-08T21:00:20.326Z,71.6
2017-11-08T21:15:04.323Z,70.9
2017-11-08T21:30:05.039Z,72.6
2017-11-08T21:45:05.795Z,72.3
2017-11-08T22:00:05.221Z,70.8
2017-11-08T22:15:06.284Z,71.5
2017-11-08T22:30:08.435Z,70.6
2017-11-08T22:45:06.643Z,71.6
2017-11-08T23:00:07.513Z,71.8
2017-11-08T23:15:05.578Z,72
2017-11-08T23:30:05.632Z,72.9
2017-11-08T23:45:05.179Z,71.7
